Time;durP1;ratioP1;P1;durP2;ratioP2;P2;SDS_P1;SDS_P2;PMS_P1;PMS_P2;Temp;Humidity;BMP_temperature;BMP_pressure;BME280_temperature;BME280_humidity;BME280_pressure;Samples;Min_cycle;Max_cycle;Signal;HPM_P1;HPM_P2
2021/06/12 00:00:46;;;;;;;19.90;17.00;;;;;;;;;;741782;186;918851;-79
2021/06/12 00:03:12;;;;;;;21.23;17.03;;;;;;;;;;754301;186;874836;-80
2021/06/12 00:05:38;;;;;;;22.73;17.40;;;;;;;;;;738535;186;918350;-79
2021/06/12 00:08:04;;;;;;;21.47;17.33;;;;;;;;;;739654;187;922756;-80
2021/06/12 00:10:30;;;;;;;23.77;17.57;;;;;;;;;;751682;186;917607;-80
2021/06/12 00:12:56;;;;;;;20.23;13.07;;;;;;;;;;738590;186;917784;-79
2021/06/12 00:15:22;;;;;;;14.80;12.87;;;;;;;;;;740055;186;918591;-80
2021/06/12 00:17:48;;;;;;;17.30;13.93;;;;;;;;;;745017;186;884094;-80
2021/06/12 00:20:14;;;;;;;17.17;12.70;;;;;;;;;;746656;187;815952;-80
2021/06/12 00:22:42;;;;;;;17.40;15.00;;;;;;;;;;739529;187;1012878;-80
2021/06/12 00:25:06;;;;;;;19.70;14.20;;;;;;;;;;744906;187;906252;-79
2021/06/12 00:27:32;;;;;;;15.20;13.37;;;;;;;;;;742732;187;909121;-79
2021/06/12 00:29:58;;;;;;;13.43;12.00;;;;;;;;;;739405;187;919187;-79
2021/06/12 00:32:24;;;;;;;18.57;13.67;;;;;;;;;;738877;187;880172;-82
2021/06/12 00:34:50;;;;;;;18.03;14.30;;;;;;;;;;744917;187;884268;-80
2021/06/12 00:37:16;;;;;;;16.13;14.40;;;;;;;;;;737484;187;918946;-79
2021/06/12 00:39:41;;;;;;;24.27;15.73;;;;;;;;;;737502;187;919036;-79
2021/06/12 00:42:07;;;;;;;22.60;16.07;;;;;;;;;;743483;187;912331;-80
2021/06/12 00:44:33;;;;;;;21.20;16.50;;;;;;;;;;749773;187;933623;-79
2021/06/12 00:46:59;;;;;;;24.97;16.53;;;;;;;;;;740909;188;918800;-79
2021/06/12 00:49:25;;;;;;;19.57;16.07;;;;;;;;;;742269;187;903470;-79
2021/06/12 00:51:51;;;;;;;18.47;15.00;;;;;;;;;;748999;187;918132;-79
2021/06/12 00:54:17;;;;;;;17.57;14.63;;;;;;;;;;747874;184;1021427;-79
2021/06/12 00:56:43;;;;;;;21.43;17.03;;;;;;;;;;743916;186;879887;-79
2021/06/12 00:59:08;;;;;;;22.00;17.03;;;;;;;;;;749579;186;917620;-79
2021/06/12 01:01:34;;;;;;;19.40;16.93;;;;;;;;;;739557;186;1393273;-79
2021/06/12 01:04:00;;;;;;;19.23;16.37;;;;;;;;;;744367;186;919073;-79
2021/06/12 01:06:26;;;;;;;21.00;18.08;;;;;;;;;;742847;186;918479;-80
2021/06/12 01:08:52;;;;;;;24.23;21.00;;;;;;;;;;747888;186;919474;-79
2021/06/12 01:11:18;;;;;;;27.50;20.50;;;;;;;;;;742967;186;940457;-80
2021/06/12 01:13:44;;;;;;;28.00;20.17;;;;;;;;;;744612;186;937022;-80
2021/06/12 01:16:12;;;;;;;25.40;19.20;;;;;;;;;;752427;186;916944;-80
2021/06/12 01:18:36;;;;;;;21.10;16.57;;;;;;;;;;741657;186;918865;-79
2021/06/12 01:21:02;;;;;;;19.77;15.73;;;;;;;;;;742340;186;818295;-79
2021/06/12 01:23:32;;;;;;;18.57;16.17;;;;;;;;;;743998;186;938175;-79
2021/06/12 01:26:03;;;;;;;18.20;15.97;;;;;;;;;;740752;186;815964;-79
2021/06/12 01:28:46;;;;;;;25.60;15.57;;;;;;;;;;744066;186;814436;-79
2021/06/12 01:31:12;;;;;;;16.03;13.90;;;;;;;;;;738173;187;918239;-80
2021/06/12 01:33:38;;;;;;;18.73;14.93;;;;;;;;;;740465;187;918672;-79
2021/06/12 01:36:04;;;;;;;15.60;13.33;;;;;;;;;;744932;187;815629;-79
2021/06/12 01:38:29;;;;;;;21.43;16.23;;;;;;;;;;738995;187;919340;-79
2021/06/12 01:40:56;;;;;;;18.50;15.37;;;;;;;;;;737202;187;926014;-80
2021/06/12 01:43:22;;;;;;;23.67;14.90;;;;;;;;;;746056;187;940066;-79
2021/06/12 01:45:48;;;;;;;16.83;13.60;;;;;;;;;;736492;187;922461;-79
2021/06/12 01:48:14;;;;;;;17.13;14.67;;;;;;;;;;737860;187;919631;-79
2021/06/12 01:50:39;;;;;;;17.00;12.30;;;;;;;;;;739544;187;917549;-79
2021/06/12 01:53:05;;;;;;;17.13;13.20;;;;;;;;;;751256;184;915925;-79
2021/06/12 01:55:31;;;;;;;15.30;12.70;;;;;;;;;;745330;187;919350;-79
2021/06/12 01:57:57;;;;;;;15.07;12.30;;;;;;;;;;742930;187;918696;-79
2021/06/12 02:00:23;;;;;;;16.97;14.47;;;;;;;;;;746553;187;814271;-79
2021/06/12 02:02:49;;;;;;;16.10;13.37;;;;;;;;;;741729;187;889813;-79
2021/06/12 02:05:14;;;;;;;38.43;17.10;;;;;;;;;;742446;184;927813;-79
2021/06/12 02:07:40;;;;;;;66.73;16.80;;;;;;;;;;751608;186;918164;-79
2021/06/12 02:10:07;;;;;;;26.50;14.43;;;;;;;;;;746246;186;926689;-79
2021/06/12 02:12:33;;;;;;;16.80;14.67;;;;;;;;;;742940;186;918392;-79
2021/06/12 02:14:59;;;;;;;23.47;15.67;;;;;;;;;;742083;186;920495;-79
2021/06/12 02:17:24;;;;;;;15.93;14.23;;;;;;;;;;744459;186;1008387;-80
2021/06/12 02:19:50;;;;;;;24.27;14.80;;;;;;;;;;742688;186;907905;-80
2021/06/12 02:22:16;;;;;;;51.97;16.00;;;;;;;;;;741841;186;1019106;-78
2021/06/12 02:24:42;;;;;;;19.17;16.57;;;;;;;;;;749940;186;887924;-79
2021/06/12 02:27:15;;;;;;;31.87;22.92;;;;;;;;;;767647;170;943116;-63
2021/06/12 02:29:41;;;;;;;28.83;17.63;;;;;;;;;;761090;183;919602;-62
2021/06/12 02:32:08;;;;;;;24.17;15.53;;;;;;;;;;761690;182;919649;-62
2021/06/12 02:34:35;;;;;;;27.63;17.40;;;;;;;;;;761354;182;920079;-62
2021/06/12 02:37:00;;;;;;;23.40;16.63;;;;;;;;;;762601;182;917539;-63
2021/06/12 02:39:25;;;;;;;21.50;16.53;;;;;;;;;;761497;182;918341;-63
2021/06/12 02:41:51;;;;;;;21.12;17.45;;;;;;;;;;766438;182;919597;-63
2021/06/12 02:44:17;;;;;;;21.27;16.50;;;;;;;;;;761848;183;919508;-63
2021/06/12 02:46:43;;;;;;;29.50;17.40;;;;;;;;;;758630;183;919108;-63
2021/06/12 02:49:09;;;;;;;20.90;17.00;;;;;;;;;;766341;182;920971;-62
2021/06/12 02:51:35;;;;;;;21.08;17.95;;;;;;;;;;757661;183;919106;-62
2021/06/12 02:54:00;;;;;;;22.80;16.83;;;;;;;;;;753348;185;919539;-63
2021/06/12 02:56:26;;;;;;;20.27;15.07;;;;;;;;;;758567;185;919692;-62
2021/06/12 02:58:53;;;;;;;17.63;14.60;;;;;;;;;;760861;183;919130;-62
2021/06/12 03:01:19;;;;;;;15.97;13.43;;;;;;;;;;756082;184;919222;-63
2021/06/12 03:03:45;;;;;;;16.27;14.53;;;;;;;;;;758064;182;919368;-62
2021/06/12 03:06:11;;;;;;;18.07;16.13;;;;;;;;;;764411;182;919246;-62
2021/06/12 03:08:37;;;;;;;21.87;16.40;;;;;;;;;;760474;182;919643;-62
2021/06/12 03:11:02;;;;;;;19.87;16.57;;;;;;;;;;759603;182;918861;-63
2021/06/12 03:13:28;;;;;;;21.93;16.47;;;;;;;;;;765545;182;919000;-62
2021/06/12 03:15:54;;;;;;;23.80;16.47;;;;;;;;;;754271;184;919583;-62
2021/06/12 03:18:20;;;;;;;20.87;16.27;;;;;;;;;;753449;185;921506;-62
2021/06/12 03:20:46;;;;;;;22.00;18.40;;;;;;;;;;763770;183;908770;-62
2021/06/12 03:23:12;;;;;;;34.30;18.97;;;;;;;;;;760682;183;920391;-62
2021/06/12 03:25:37;;;;;;;35.57;21.20;;;;;;;;;;759131;182;916124;-63
2021/06/12 03:28:03;;;;;;;26.48;19.98;;;;;;;;;;762478;182;871372;-61
2021/06/12 03:30:29;;;;;;;31.50;20.10;;;;;;;;;;765139;180;919762;-62
2021/06/12 03:32:55;;;;;;;27.33;21.07;;;;;;;;;;758988;182;920035;-62
2021/06/12 03:35:21;;;;;;;23.03;18.53;;;;;;;;;;759493;182;920163;-62
2021/06/12 03:37:47;;;;;;;26.77;20.63;;;;;;;;;;769536;182;919803;-62
2021/06/12 03:40:13;;;;;;;29.90;20.53;;;;;;;;;;762821;182;920855;-64
2021/06/12 03:42:39;;;;;;;29.50;18.92;;;;;;;;;;759250;183;919080;-63
2021/06/12 03:45:05;;;;;;;26.20;21.07;;;;;;;;;;749388;186;919373;-62
2021/06/12 03:47:31;;;;;;;35.17;22.40;;;;;;;;;;735296;190;920061;-63
2021/06/12 03:49:57;;;;;;;35.97;25.23;;;;;;;;;;751506;186;919339;-63
2021/06/12 03:52:23;;;;;;;34.87;26.20;;;;;;;;;;752595;186;921009;-62
2021/06/12 03:54:49;;;;;;;37.10;25.80;;;;;;;;;;757151;183;924558;-63
2021/06/12 03:57:15;;;;;;;40.07;28.27;;;;;;;;;;761411;182;887156;-62
2021/06/12 03:59:40;;;;;;;50.10;31.47;;;;;;;;;;759454;182;919413;-62
2021/06/12 04:02:06;;;;;;;52.53;33.23;;;;;;;;;;766854;182;918812;-63
2021/06/12 04:04:32;;;;;;;54.53;34.03;;;;;;;;;;755097;183;918585;-62
2021/06/12 04:06:58;;;;;;;64.07;38.50;;;;;;;;;;752862;184;920069;-63
2021/06/12 04:09:24;;;;;;;65.40;36.57;;;;;;;;;;757288;184;919383;-63
2021/06/12 04:11:50;;;;;;;72.50;40.47;;;;;;;;;;747456;186;946239;-63
2021/06/12 04:14:15;;;;;;;72.03;41.50;;;;;;;;;;759047;183;919805;-62
2021/06/12 04:16:41;;;;;;;75.07;40.83;;;;;;;;;;762494;182;919353;-63
2021/06/12 04:19:07;;;;;;;66.03;39.47;;;;;;;;;;758411;183;918836;-63
2021/06/12 04:21:33;;;;;;;76.07;42.80;;;;;;;;;;760838;183;919300;-63
2021/06/12 04:23:59;;;;;;;78.63;39.03;;;;;;;;;;756964;183;919274;-62
2021/06/12 04:26:25;;;;;;;68.07;40.75;;;;;;;;;;763137;183;919439;-62
2021/06/12 04:28:51;;;;;;;68.30;40.60;;;;;;;;;;758704;182;924886;-62
2021/06/12 04:31:17;;;;;;;68.03;40.87;;;;;;;;;;759515;182;919246;-63
2021/06/12 04:33:43;;;;;;;69.83;40.50;;;;;;;;;;763399;182;918331;-63
2021/06/12 04:36:08;;;;;;;67.87;40.83;;;;;;;;;;762362;182;919338;-63
2021/06/12 04:38:34;;;;;;;77.03;41.40;;;;;;;;;;753704;184;920207;-63
2021/06/12 04:41:00;;;;;;;79.37;45.73;;;;;;;;;;761891;183;919537;-62
2021/06/12 04:43:26;;;;;;;72.60;42.23;;;;;;;;;;762885;182;919697;-62
2021/06/12 04:45:52;;;;;;;93.60;46.37;;;;;;;;;;762117;182;922665;-63
2021/06/12 04:48:18;;;;;;;79.40;47.20;;;;;;;;;;761517;183;915090;-63
2021/06/12 04:50:43;;;;;;;99.87;53.60;;;;;;;;;;762970;183;919447;-63
2021/06/12 04:53:09;;;;;;;111.57;60.05;;;;;;;;;;761367;182;919332;-63
2021/06/12 04:55:35;;;;;;;131.30;68.90;;;;;;;;;;758420;182;919456;-63
2021/06/12 04:58:01;;;;;;;148.83;76.20;;;;;;;;;;765545;182;920110;-63
2021/06/12 05:00:27;;;;;;;154.00;78.10;;;;;;;;;;763833;182;917164;-62
2021/06/12 05:02:53;;;;;;;141.93;74.30;;;;;;;;;;760101;182;919836;-63
2021/06/12 05:05:19;;;;;;;141.40;70.37;;;;;;;;;;766806;183;944804;-64
2021/06/12 05:07:44;;;;;;;134.07;70.07;;;;;;;;;;757331;183;918030;-63
2021/06/12 05:10:10;;;;;;;126.83;70.87;;;;;;;;;;760921;182;936448;-63
2021/06/12 05:12:36;;;;;;;127.03;69.00;;;;;;;;;;765674;182;1016293;-63
2021/06/12 05:15:02;;;;;;;133.80;73.30;;;;;;;;;;760532;182;924748;-63
2021/06/12 05:17:28;;;;;;;121.47;72.33;;;;;;;;;;758118;183;920417;-63
2021/06/12 05:19:54;;;;;;;128.53;71.53;;;;;;;;;;758487;182;921451;-63
2021/06/12 05:22:20;;;;;;;114.60;67.37;;;;;;;;;;761244;183;920890;-63
2021/06/12 05:24:46;;;;;;;109.23;63.43;;;;;;;;;;759538;182;919705;-63
2021/06/12 05:27:12;;;;;;;104.60;65.20;;;;;;;;;;759234;184;919605;-63
2021/06/12 05:29:38;;;;;;;85.80;57.22;;;;;;;;;;765688;182;919911;-64
2021/06/12 05:32:04;;;;;;;83.60;55.80;;;;;;;;;;757416;183;918632;-64
2021/06/12 05:34:30;;;;;;;72.43;53.80;;;;;;;;;;760608;183;919065;-64
2021/06/12 05:36:56;;;;;;;64.40;47.87;;;;;;;;;;765131;183;918219;-64
2021/06/12 05:39:22;;;;;;;43.87;37.37;;;;;;;;;;758583;182;920824;-64
2021/06/12 05:41:48;;;;;;;45.40;38.03;;;;;;;;;;760924;182;920192;-63
2021/06/12 05:44:14;;;;;;;41.67;34.15;;;;;;;;;;764839;182;919428;-63
2021/06/12 05:46:40;;;;;;;33.43;29.73;;;;;;;;;;741049;186;923299;-64
2021/06/12 05:49:06;;;;;;;43.47;31.77;;;;;;;;;;755718;183;1021285;-64
2021/06/12 05:51:32;;;;;;;45.93;35.27;;;;;;;;;;760113;182;918992;-66
2021/06/12 05:53:58;;;;;;;37.20;33.30;;;;;;;;;;768685;182;887513;-64
2021/06/12 05:56:23;;;;;;;33.27;29.70;;;;;;;;;;762345;183;921612;-64
2021/06/12 05:58:49;;;;;;;30.40;27.07;;;;;;;;;;759959;183;920693;-63
2021/06/12 06:01:15;;;;;;;35.00;24.33;;;;;;;;;;767763;182;917814;-64
2021/06/12 06:03:41;;;;;;;28.33;25.20;;;;;;;;;;762895;182;915125;-63
2021/06/12 06:06:07;;;;;;;27.30;24.37;;;;;;;;;;760687;182;998829;-64
2021/06/12 06:08:33;;;;;;;25.00;22.37;;;;;;;;;;765708;182;947667;-65
2021/06/12 06:10:59;;;;;;;27.17;23.83;;;;;;;;;;760984;182;918806;-64
2021/06/12 06:13:24;;;;;;;26.23;23.50;;;;;;;;;;761542;182;938102;-65
2021/06/12 06:15:50;;;;;;;23.30;20.83;;;;;;;;;;760895;182;916070;-63
2021/06/12 06:18:16;;;;;;;24.42;21.45;;;;;;;;;;766626;182;918859;-64
2021/06/12 06:20:43;;;;;;;24.43;21.20;;;;;;;;;;757206;183;918913;-64
2021/06/12 06:23:09;;;;;;;20.93;18.80;;;;;;;;;;762643;183;918780;-64
2021/06/12 06:25:34;;;;;;;23.50;21.00;;;;;;;;;;765881;183;882835;-63
2021/06/12 06:28:00;;;;;;;24.60;19.67;;;;;;;;;;760287;182;922977;-64
2021/06/12 06:30:26;;;;;;;19.57;17.63;;;;;;;;;;764878;183;914888;-64
2021/06/12 06:32:52;;;;;;;21.93;18.80;;;;;;;;;;763040;183;919573;-64
2021/06/12 06:35:18;;;;;;;20.10;18.07;;;;;;;;;;759169;182;919553;-64
2021/06/12 06:37:44;;;;;;;19.20;17.20;;;;;;;;;;759570;183;919375;-64
2021/06/12 06:40:10;;;;;;;18.90;16.47;;;;;;;;;;761264;182;918902;-64
2021/06/12 06:42:36;;;;;;;20.27;18.20;;;;;;;;;;759318;182;920097;-64
2021/06/12 06:45:02;;;;;;;20.00;16.83;;;;;;;;;;760070;182;919654;-64
2021/06/12 06:47:27;;;;;;;17.20;15.43;;;;;;;;;;759262;183;919198;-65
2021/06/12 06:49:54;;;;;;;17.17;15.47;;;;;;;;;;763175;184;621882;-65
2021/06/12 06:52:20;;;;;;;18.67;16.80;;;;;;;;;;758793;182;919388;-65
2021/06/12 06:54:46;;;;;;;19.57;17.57;;;;;;;;;;757851;182;931031;-65
2021/06/12 06:57:12;;;;;;;19.03;15.90;;;;;;;;;;764469;182;918276;-64
2021/06/12 06:59:38;;;;;;;17.30;15.60;;;;;;;;;;758686;184;918453;-65
2021/06/12 07:02:04;;;;;;;18.30;16.40;;;;;;;;;;753057;184;923408;-64
2021/06/12 07:04:32;;;;;;;18.10;16.20;;;;;;;;;;759363;183;919122;-64
2021/06/12 07:06:55;;;;;;;17.83;16.03;;;;;;;;;;760253;184;918920;-64
2021/06/12 07:09:21;;;;;;;17.80;15.90;;;;;;;;;;758830;182;919068;-64
2021/06/12 07:11:47;;;;;;;17.70;15.10;;;;;;;;;;762128;181;921933;-64
2021/06/12 07:14:13;;;;;;;23.03;18.30;;;;;;;;;;767574;182;919503;-65
2021/06/12 07:16:39;;;;;;;20.23;18.07;;;;;;;;;;761176;182;921883;-66
2021/06/12 07:19:05;;;;;;;19.50;17.30;;;;;;;;;;760990;183;918613;-64
2021/06/12 07:21:30;;;;;;;18.27;16.37;;;;;;;;;;766976;182;914820;-64
2021/06/12 07:23:56;;;;;;;19.67;17.73;;;;;;;;;;757214;183;917250;-65
2021/06/12 07:26:22;;;;;;;17.90;16.00;;;;;;;;;;756908;182;930982;-66
2021/06/12 07:28:48;;;;;;;19.73;17.62;;;;;;;;;;749045;186;920977;-64
2021/06/12 07:31:14;;;;;;;16.90;15.20;;;;;;;;;;759202;183;917901;-65
2021/06/12 07:33:40;;;;;;;18.23;16.20;;;;;;;;;;760093;183;916168;-66
2021/06/12 07:36:06;;;;;;;17.70;14.80;;;;;;;;;;761258;182;915723;-65
2021/06/12 07:38:31;;;;;;;17.83;16.13;;;;;;;;;;768357;183;915686;-65
2021/06/12 07:40:57;;;;;;;17.03;15.23;;;;;;;;;;758625;183;813375;-64
2021/06/12 07:43:23;;;;;;;20.27;17.17;;;;;;;;;;759836;182;915844;-65
2021/06/12 07:45:49;;;;;;;18.83;16.83;;;;;;;;;;766263;182;911398;-65
2021/06/12 07:48:16;;;;;;;17.70;15.87;;;;;;;;;;762981;182;933299;-65
2021/06/12 07:50:42;;;;;;;20.43;18.37;;;;;;;;;;762269;182;919568;-65
2021/06/12 07:53:08;;;;;;;19.50;17.33;;;;;;;;;;767663;182;620166;-66
2021/06/12 07:55:33;;;;;;;19.67;17.30;;;;;;;;;;763039;182;920484;-65
2021/06/12 07:57:59;;;;;;;21.33;17.33;;;;;;;;;;761031;182;916551;-65
2021/06/12 08:00:25;;;;;;;20.93;16.90;;;;;;;;;;764180;183;625294;-66
2021/06/12 08:02:51;;;;;;;21.93;17.90;;;;;;;;;;752153;185;878984;-63
2021/06/12 08:05:17;;;;;;;19.20;17.27;;;;;;;;;;751202;185;918972;-65
2021/06/12 08:07:43;;;;;;;19.10;17.10;;;;;;;;;;752595;184;918977;-65
2021/06/12 08:10:09;;;;;;;18.17;15.70;;;;;;;;;;767098;183;935449;-65
2021/06/12 08:12:36;;;;;;;17.67;15.83;;;;;;;;;;756552;183;925535;-66
2021/06/12 08:15:01;;;;;;;18.80;16.37;;;;;;;;;;761762;183;918644;-67
2021/06/12 08:17:26;;;;;;;21.27;18.00;;;;;;;;;;764488;182;919659;-66
2021/06/12 08:19:52;;;;;;;17.47;15.77;;;;;;;;;;759896;182;918815;-65
2021/06/12 08:22:18;;;;;;;18.47;16.57;;;;;;;;;;758947;182;919353;-65
2021/06/12 08:24:45;;;;;;;19.45;17.45;;;;;;;;;;767145;180;919671;-65
2021/06/12 08:27:11;;;;;;;22.63;18.27;;;;;;;;;;761176;183;918695;-66
2021/06/12 08:29:36;;;;;;;20.80;18.20;;;;;;;;;;759146;182;918854;-65
2021/06/12 08:32:03;;;;;;;19.43;16.17;;;;;;;;;;762159;182;917890;-66
2021/06/12 08:34:28;;;;;;;18.77;16.87;;;;;;;;;;767642;182;919742;-66
2021/06/12 08:36:54;;;;;;;19.47;17.47;;;;;;;;;;762772;182;919543;-66
2021/06/12 08:39:20;;;;;;;20.10;18.00;;;;;;;;;;760769;182;919354;-64
2021/06/12 08:41:46;;;;;;;20.37;18.27;;;;;;;;;;765414;182;919722;-66
2021/06/12 08:44:12;;;;;;;19.37;17.50;;;;;;;;;;764411;182;919689;-65
2021/06/12 08:46:38;;;;;;;19.63;16.90;;;;;;;;;;757647;183;919040;-67
2021/06/12 08:49:03;;;;;;;22.60;18.07;;;;;;;;;;765101;183;919305;-65
2021/06/12 08:51:29;;;;;;;21.63;18.23;;;;;;;;;;759872;182;919501;-65
2021/06/12 08:53:55;;;;;;;20.77;18.47;;;;;;;;;;760901;182;919244;-65
2021/06/12 08:56:21;;;;;;;19.37;17.23;;;;;;;;;;760296;182;921666;-67
2021/06/12 08:58:47;;;;;;;19.27;17.07;;;;;;;;;;768564;179;918950;-66
2021/06/12 09:01:13;;;;;;;30.50;18.03;;;;;;;;;;760674;182;919567;-66
2021/06/12 09:03:39;;;;;;;24.20;16.90;;;;;;;;;;760545;182;919707;-66
2021/06/12 09:06:05;;;;;;;16.77;15.17;;;;;;;;;;766245;183;713885;-66
2021/06/12 09:08:31;;;;;;;19.33;17.07;;;;;;;;;;761740;183;918669;-66
2021/06/12 09:10:58;;;;;;;15.50;13.90;;;;;;;;;;756462;183;919872;-65
2021/06/12 09:13:29;;;;;;;16.23;14.63;;;;;;;;;;764847;182;919248;-66
2021/06/12 09:15:58;;;;;;;17.63;15.83;;;;;;;;;;765024;183;918226;-66
2021/06/12 09:18:27;;;;;;;17.20;15.50;;;;;;;;;;758110;183;919806;-65
2021/06/12 09:20:53;;;;;;;16.80;13.20;;;;;;;;;;761640;182;919063;-66
2021/06/12 09:23:19;;;;;;;21.30;16.20;;;;;;;;;;757371;182;2166542;-67
2021/06/12 09:25:44;;;;;;;18.50;14.70;;;;;;;;;;758917;182;916236;-67
2021/06/12 09:28:10;;;;;;;16.03;14.50;;;;;;;;;;759695;182;915438;-65
2021/06/12 09:30:36;;;;;;;13.67;12.37;;;;;;;;;;759312;182;918579;-66
2021/06/12 09:33:02;;;;;;;11.23;10.10;;;;;;;;;;766647;183;919894;-66
2021/06/12 09:35:29;;;;;;;15.90;12.00;;;;;;;;;;760405;182;919359;-66
2021/06/12 09:37:54;;;;;;;11.80;10.27;;;;;;;;;;759047;183;922115;-67
2021/06/12 09:40:22;;;;;;;13.13;11.83;;;;;;;;;;764347;183;919659;-66
2021/06/12 09:42:47;;;;;;;13.80;12.00;;;;;;;;;;761260;182;919441;-65
2021/06/12 09:45:14;;;;;;;11.47;10.37;;;;;;;;;;762130;182;916496;-67
2021/06/12 09:47:40;;;;;;;16.90;11.00;;;;;;;;;;767914;182;870248;-67
2021/06/12 09:50:06;;;;;;;12.50;11.03;;;;;;;;;;766087;182;864636;-66
2021/06/12 09:52:46;;;;;;;13.13;11.10;;;;;;;;;;764301;182;919594;-67
2021/06/12 09:55:30;;;;;;;10.70;9.70;;;;;;;;;;761126;182;932272;-68
2021/06/12 09:57:56;;;;;;;12.13;10.93;;;;;;;;;;759136;183;919665;-68
2021/06/12 10:00:27;;;;;;;13.20;11.83;;;;;;;;;;757925;183;919767;-66
2021/06/12 10:02:53;;;;;;;12.23;10.53;;;;;;;;;;737082;187;918753;-67
2021/06/12 10:05:19;;;;;;;12.67;11.37;;;;;;;;;;733285;188;918202;-68
2021/06/12 10:07:45;;;;;;;15.07;10.70;;;;;;;;;;738576;188;919236;-67
2021/06/12 10:10:12;;;;;;;14.17;11.40;;;;;;;;;;761177;184;633930;-68
2021/06/12 10:12:37;;;;;;;12.23;11.03;;;;;;;;;;733508;190;919607;-66
2021/06/12 10:15:03;;;;;;;12.77;10.77;;;;;;;;;;718164;193;918952;-68
2021/06/12 10:17:29;;;;;;;13.73;11.73;;;;;;;;;;764853;183;615493;-67
2021/06/12 10:19:55;;;;;;;15.13;11.90;;;;;;;;;;761038;182;917868;-68
2021/06/12 10:22:20;;;;;;;14.20;11.40;;;;;;;;;;760629;182;919650;-67
2021/06/12 10:24:48;;;;;;;11.20;10.00;;;;;;;;;;758944;182;919462;-67
2021/06/12 10:27:14;;;;;;;12.30;10.33;;;;;;;;;;763976;182;919035;-68
2021/06/12 10:29:40;;;;;;;16.23;10.73;;;;;;;;;;758954;182;917831;-67
2021/06/12 10:32:06;;;;;;;13.10;11.70;;;;;;;;;;758483;182;918815;-69
2021/06/12 10:34:32;;;;;;;12.10;10.90;;;;;;;;;;766189;182;877336;-69
2021/06/12 10:36:58;;;;;;;12.30;11.07;;;;;;;;;;761395;182;920623;-67
2021/06/12 10:39:24;;;;;;;17.63;12.73;;;;;;;;;;758450;184;919088;-70
2021/06/12 10:41:50;;;;;;;12.93;11.73;;;;;;;;;;757070;185;624241;-67
2021/06/12 10:44:15;;;;;;;12.93;11.67;;;;;;;;;;767718;179;631133;-67
2021/06/12 10:46:45;;;;;;;13.20;11.90;;;;;;;;;;759653;184;648486;-67
2021/06/12 10:49:11;;;;;;;21.20;11.90;;;;;;;;;;759101;183;633007;-67
2021/06/12 10:51:44;;;;;;;12.00;10.80;;;;;;;;;;769257;182;640435;-69
2021/06/12 10:54:19;;;;;;;12.27;11.03;;;;;;;;;;767816;183;628228;-68
2021/06/12 10:56:45;;;;;;;19.93;14.40;;;;;;;;;;762538;182;629379;-69
2021/06/12 10:59:12;;;;;;;13.00;10.83;;;;;;;;;;761204;183;627806;-69
2021/06/12 11:01:37;;;;;;;12.83;11.00;;;;;;;;;;764133;182;919220;-68
2021/06/12 11:04:15;;;;;;;13.40;12.03;;;;;;;;;;765894;182;919707;-67
2021/06/12 11:06:45;;;;;;;12.27;10.77;;;;;;;;;;757412;183;919499;-68
2021/06/12 11:09:27;;;;;;;11.90;10.70;;;;;;;;;;761725;183;919313;-68
2021/06/12 11:11:53;;;;;;;11.53;10.30;;;;;;;;;;765794;183;627726;-68
2021/06/12 11:14:24;;;;;;;11.80;9.90;;;;;;;;;;763334;182;1021570;-68
2021/06/12 11:16:55;;;;;;;11.23;10.20;;;;;;;;;;767386;183;919311;-69
2021/06/12 11:19:25;;;;;;;9.60;8.30;;;;;;;;;;761330;182;918896;-68
2021/06/12 11:21:53;;;;;;;11.73;9.30;;;;;;;;;;759150;182;919790;-68
2021/06/12 11:24:24;;;;;;;11.98;9.77;;;;;;;;;;760189;182;920058;-70
2021/06/12 11:26:56;;;;;;;8.27;7.47;;;;;;;;;;767124;182;918974;-69
2021/06/12 11:29:22;;;;;;;12.63;9.98;;;;;;;;;;768780;182;919720;-68
2021/06/12 11:31:48;;;;;;;10.30;9.30;;;;;;;;;;757746;183;919238;-69
2021/06/12 11:34:16;;;;;;;10.43;9.30;;;;;;;;;;757610;182;936020;-68
2021/06/12 11:36:42;;;;;;;10.03;9.03;;;;;;;;;;764655;182;918437;-68
2021/06/12 11:39:09;;;;;;;10.68;9.48;;;;;;;;;;761522;182;919690;-68
2021/06/12 11:41:34;;;;;;;10.80;9.70;;;;;;;;;;762165;182;919248;-68
2021/06/12 11:44:00;;;;;;;11.20;9.57;;;;;;;;;;764792;182;920314;-67
2021/06/12 11:46:34;;;;;;;16.50;8.90;;;;;;;;;;760509;182;922834;-68
2021/06/12 11:49:00;;;;;;;9.20;7.60;;;;;;;;;;758790;183;919410;-69
2021/06/12 11:51:25;;;;;;;11.23;9.37;;;;;;;;;;757835;183;930123;-68
2021/06/12 11:53:57;;;;;;;9.93;9.03;;;;;;;;;;762982;182;919310;-68
2021/06/12 11:56:29;;;;;;;10.53;9.50;;;;;;;;;;757652;183;919648;-67
2021/06/12 11:58:55;;;;;;;9.47;8.57;;;;;;;;;;761395;181;919617;-68
2021/06/12 12:01:21;;;;;;;9.90;9.10;;;;;;;;;;762812;182;918970;-67
2021/06/12 12:03:46;;;;;;;9.70;8.70;;;;;;;;;;767314;182;919866;-68
2021/06/12 12:06:12;;;;;;;11.50;8.80;;;;;;;;;;758489;183;920259;-67
2021/06/12 12:08:38;;;;;;;12.50;9.57;;;;;;;;;;763199;183;919955;-69
2021/06/12 12:11:04;;;;;;;15.27;4.93;;;;;;;;;;765539;182;920193;-70
2021/06/12 12:13:34;;;;;;;8.00;4.10;;;;;;;;;;760577;182;941210;-69
2021/06/12 12:15:59;;;;;;;9.80;4.63;;;;;;;;;;760741;183;920296;-67
2021/06/12 12:18:29;;;;;;;7.33;4.60;;;;;;;;;;759285;184;919024;-68
2021/06/12 12:20:57;;;;;;;9.53;6.67;;;;;;;;;;766315;182;1032678;-69
2021/06/12 12:23:21;;;;;;;8.47;4.93;;;;;;;;;;762729;182;915611;-67
2021/06/12 12:25:47;;;;;;;7.70;4.63;;;;;;;;;;760397;182;915845;-67
2021/06/12 12:28:19;;;;;;;6.30;4.60;;;;;;;;;;765955;183;917339;-66
2021/06/12 12:30:38;;;;;;;5.70;4.57;;;;;;;;;;754333;183;916054;-66
2021/06/12 12:33:08;;;;;;;5.63;4.97;;;;;;;;;;761946;182;920327;-66
2021/06/12 12:35:34;;;;;;;5.87;4.53;;;;;;;;;;757698;183;915054;-67
2021/06/12 12:38:06;;;;;;;6.80;5.60;;;;;;;;;;748557;186;913986;-66
2021/06/12 12:40:32;;;;;;;8.53;5.13;;;;;;;;;;758157;183;919386;-67
2021/06/12 12:42:59;;;;;;;9.80;6.00;;;;;;;;;;763308;182;919394;-67
2021/06/12 12:45:25;;;;;;;6.73;6.13;;;;;;;;;;752995;185;919452;-67
2021/06/12 12:47:51;;;;;;;7.00;5.23;;;;;;;;;;763093;183;919797;-66
2021/06/12 12:50:17;;;;;;;7.00;5.00;;;;;;;;;;758778;182;919760;-66
2021/06/12 12:52:43;;;;;;;7.63;5.50;;;;;;;;;;758803;184;919118;-67
2021/06/12 12:55:09;;;;;;;7.67;5.90;;;;;;;;;;766900;182;919281;-67
2021/06/12 12:57:39;;;;;;;9.23;6.78;;;;;;;;;;761431;183;919095;-68
2021/06/12 13:00:05;;;;;;;7.67;6.03;;;;;;;;;;761547;183;918453;-67
2021/06/12 13:02:31;;;;;;;6.80;4.43;;;;;;;;;;760488;183;920368;-67
2021/06/12 13:04:57;;;;;;;6.70;5.77;;;;;;;;;;762604;183;918105;-67
2021/06/12 13:07:23;;;;;;;6.23;5.53;;;;;;;;;;757507;183;919877;-66
2021/06/12 13:09:55;;;;;;;8.57;7.57;;;;;;;;;;759536;183;919151;-67
2021/06/12 13:12:20;;;;;;;9.40;6.90;;;;;;;;;;764624;182;918434;-67
2021/06/12 13:14:52;;;;;;;7.83;6.10;;;;;;;;;;760604;182;919115;-68
2021/06/12 13:17:18;;;;;;;7.77;6.90;;;;;;;;;;761299;182;918526;-69
2021/06/12 13:19:44;;;;;;;10.20;6.60;;;;;;;;;;760595;183;924874;-68
2021/06/12 13:22:10;;;;;;;9.70;6.63;;;;;;;;;;766994;183;919341;-68
2021/06/12 13:24:41;;;;;;;7.77;6.70;;;;;;;;;;762066;182;919450;-67
2021/06/12 13:27:07;;;;;;;7.43;6.23;;;;;;;;;;762087;182;921269;-69
2021/06/12 13:29:33;;;;;;;11.55;7.30;;;;;;;;;;763458;182;918953;-68
2021/06/12 13:31:59;;;;;;;8.20;7.07;;;;;;;;;;760816;183;1019743;-69
2021/06/12 13:34:25;;;;;;;7.43;6.73;;;;;;;;;;761451;183;914494;-68
2021/06/12 13:36:54;;;;;;;7.80;7.10;;;;;;;;;;757340;182;913606;-67
2021/06/12 13:39:25;;;;;;;7.50;6.80;;;;;;;;;;765825;183;915837;-68
2021/06/12 13:41:51;;;;;;;10.43;6.83;;;;;;;;;;759218;182;917012;-66
2021/06/12 13:44:17;;;;;;;6.43;5.83;;;;;;;;;;762872;183;915787;-68
2021/06/12 13:46:43;;;;;;;7.15;6.45;;;;;;;;;;756601;183;915760;-67
2021/06/12 13:49:09;;;;;;;8.97;7.87;;;;;;;;;;761702;183;915212;-68
2021/06/12 13:51:34;;;;;;;8.87;7.93;;;;;;;;;;757751;182;952366;-66
2021/06/12 13:54:00;;;;;;;9.37;8.47;;;;;;;;;;761622;182;920369;-67
2021/06/12 13:56:27;;;;;;;9.20;8.30;;;;;;;;;;767748;182;919206;-67
2021/06/12 13:58:52;;;;;;;10.30;8.00;;;;;;;;;;761147;182;919334;-68
2021/06/12 14:01:18;;;;;;;8.97;8.07;;;;;;;;;;756031;183;919682;-65
2021/06/12 14:03:44;;;;;;;9.40;8.20;;;;;;;;;;768464;182;919414;-68